sensor_id;sensor_type;location;lat;lon;timestamp;temperature;humidity
23637;DHT22;11995;50.842;4.456;2022-08-20T00:01:05;19.80;99.90
23637;DHT22;11995;50.842;4.456;2022-08-20T00:03:34;19.80;99.90
23637;DHT22;11995;50.842;4.456;2022-08-20T00:06:05;19.70;99.90
23637;DHT22;11995;50.842;4.456;2022-08-20T00:08:29;19.70;99.90
23637;DHT22;11995;50.842;4.456;2022-08-20T00:10:57;19.60;99.90
23637;DHT22;11995;50.842;4.456;2022-08-20T00:13:27;19.40;99.90
23637;DHT22;11995;50.842;4.456;2022-08-20T00:15:52;19.40;99.90
23637;DHT22;11995;50.842;4.456;2022-08-20T00:18:19;19.30;99.90
23637;DHT22;11995;50.842;4.456;2022-08-20T00:20:47;19.20;99.90
23637;DHT22;11995;50.842;4.456;2022-08-20T00:23:15;19.20;99.90
23637;DHT22;11995;50.842;4.456;2022-08-20T00:25:43;19.20;99.90
23637;DHT22;11995;50.842;4.456;2022-08-20T00:28:11;19.20;99.90
23637;DHT22;11995;50.842;4.456;2022-08-20T00:30:38;19.20;99.90
23637;DHT22;11995;50.842;4.456;2022-08-20T00:33:07;19.20;99.90
23637;DHT22;11995;50.842;4.456;2022-08-20T00:35:35;19.20;99.90
23637;DHT22;11995;50.842;4.456;2022-08-20T00:38:02;19.30;99.90
23637;DHT22;11995;50.842;4.456;2022-08-20T00:40:31;19.30;99.90
23637;DHT22;11995;50.842;4.456;2022-08-20T00:42:59;19.20;99.90
23637;DHT22;11995;50.842;4.456;2022-08-20T00:45:29;19.10;99.90
23637;DHT22;11995;50.842;4.456;2022-08-20T00:47:58;19.00;99.90
23637;DHT22;11995;50.842;4.456;2022-08-20T00:50:35;18.90;99.90
23637;DHT22;11995;50.842;4.456;2022-08-20T00:53:00;18.90;99.90
23637;DHT22;11995;50.842;4.456;2022-08-20T00:55:29;18.80;99.90
23637;DHT22;11995;50.842;4.456;2022-08-20T00:57:57;18.80;99.90
23637;DHT22;11995;50.842;4.456;2022-08-20T01:00:26;18.70;99.90
23637;DHT22;11995;50.842;4.456;2022-08-20T01:02:53;18.70;99.90
23637;DHT22;11995;50.842;4.456;2022-08-20T01:05:25;18.70;99.90
23637;DHT22;11995;50.842;4.456;2022-08-20T01:07:52;18.70;99.90
23637;DHT22;11995;50.842;4.456;2022-08-20T01:10:21;18.80;99.90
23637;DHT22;11995;50.842;4.456;2022-08-20T01:12:49;18.70;99.90
23637;DHT22;11995;50.842;4.456;2022-08-20T01:15:18;18.80;99.90
23637;DHT22;11995;50.842;4.456;2022-08-20T01:17:49;18.80;99.90
23637;DHT22;11995;50.842;4.456;2022-08-20T01:20:18;18.70;99.90
23637;DHT22;11995;50.842;4.456;2022-08-20T01:28:13;18.70;99.90
23637;DHT22;11995;50.842;4.456;2022-08-20T01:30:41;18.50;99.90
23637;DHT22;11995;50.842;4.456;2022-08-20T01:33:08;18.50;99.90
23637;DHT22;11995;50.842;4.456;2022-08-20T01:35:36;18.40;99.90
23637;DHT22;11995;50.842;4.456;2022-08-20T01:38:05;18.40;99.90
23637;DHT22;11995;50.842;4.456;2022-08-20T01:40:43;18.40;99.90
23637;DHT22;11995;50.842;4.456;2022-08-20T01:43:07;18.40;99.90
23637;DHT22;11995;50.842;4.456;2022-08-20T01:45:33;18.40;99.90
23637;DHT22;11995;50.842;4.456;2022-08-20T01:48:01;18.40;99.90
23637;DHT22;11995;50.842;4.456;2022-08-20T01:50:28;18.40;99.90
23637;DHT22;11995;50.842;4.456;2022-08-20T01:52:59;18.30;99.90
23637;DHT22;11995;50.842;4.456;2022-08-20T01:55:25;18.30;99.90
23637;DHT22;11995;50.842;4.456;2022-08-20T01:57:52;18.20;99.90
23637;DHT22;11995;50.842;4.456;2022-08-20T02:00:21;18.20;99.90
23637;DHT22;11995;50.842;4.456;2022-08-20T02:02:48;18.10;99.90
23637;DHT22;11995;50.842;4.456;2022-08-20T02:05:15;18.10;99.90
23637;DHT22;11995;50.842;4.456;2022-08-20T02:07:42;18.10;99.90
23637;DHT22;11995;50.842;4.456;2022-08-20T02:10:12;18.10;99.90
23637;DHT22;11995;50.842;4.456;2022-08-20T02:12:40;18.00;99.90
23637;DHT22;11995;50.842;4.456;2022-08-20T02:15:09;18.00;99.90
23637;DHT22;11995;50.842;4.456;2022-08-20T02:17:36;18.00;99.90
23637;DHT22;11995;50.842;4.456;2022-08-20T02:20:19;17.90;99.90
23637;DHT22;11995;50.842;4.456;2022-08-20T02:22:49;17.90;99.90
23637;DHT22;11995;50.842;4.456;2022-08-20T02:25:19;17.90;99.90
23637;DHT22;11995;50.842;4.456;2022-08-20T02:27:46;17.70;99.90
23637;DHT22;11995;50.842;4.456;2022-08-20T02:30:16;17.70;99.90
23637;DHT22;11995;50.842;4.456;2022-08-20T02:32:44;17.80;99.90
23637;DHT22;11995;50.842;4.456;2022-08-20T02:35:10;17.70;99.90
23637;DHT22;11995;50.842;4.456;2022-08-20T02:37:40;17.70;99.90
23637;DHT22;11995;50.842;4.456;2022-08-20T02:40:09;17.50;99.90
23637;DHT22;11995;50.842;4.456;2022-08-20T02:42:36;17.60;99.90
23637;DHT22;11995;50.842;4.456;2022-08-20T02:45:05;17.60;99.90
23637;DHT22;11995;50.842;4.456;2022-08-20T02:47:32;17.60;99.90
23637;DHT22;11995;50.842;4.456;2022-08-20T02:49:58;17.50;99.90
23637;DHT22;11995;50.842;4.456;2022-08-20T02:52:25;17.50;99.90
23637;DHT22;11995;50.842;4.456;2022-08-20T02:54:52;17.50;99.90
23637;DHT22;11995;50.842;4.456;2022-08-20T02:57:19;17.50;99.90
23637;DHT22;11995;50.842;4.456;2022-08-20T02:59:47;17.50;99.90
23637;DHT22;11995;50.842;4.456;2022-08-20T03:02:14;17.40;99.90
23637;DHT22;11995;50.842;4.456;2022-08-20T03:04:41;17.40;99.90
23637;DHT22;11995;50.842;4.456;2022-08-20T03:07:08;17.30;99.90
23637;DHT22;11995;50.842;4.456;2022-08-20T03:09:39;17.30;99.90
23637;DHT22;11995;50.842;4.456;2022-08-20T03:12:08;17.30;99.90
23637;DHT22;11995;50.842;4.456;2022-08-20T03:14:36;17.30;99.90
23637;DHT22;11995;50.842;4.456;2022-08-20T03:17:03;17.30;99.90
23637;DHT22;11995;50.842;4.456;2022-08-20T03:19:30;17.30;99.90
23637;DHT22;11995;50.842;4.456;2022-08-20T03:21:57;17.40;99.90
23637;DHT22;11995;50.842;4.456;2022-08-20T03:24:25;17.40;99.90
23637;DHT22;11995;50.842;4.456;2022-08-20T03:26:51;17.30;99.90
23637;DHT22;11995;50.842;4.456;2022-08-20T03:29:18;17.30;99.90
23637;DHT22;11995;50.842;4.456;2022-08-20T03:31:45;17.40;99.90
23637;DHT22;11995;50.842;4.456;2022-08-20T03:34:14;17.40;99.90
23637;DHT22;11995;50.842;4.456;2022-08-20T03:36:42;17.40;99.90
23637;DHT22;11995;50.842;4.456;2022-08-20T03:39:08;17.50;99.90
23637;DHT22;11995;50.842;4.456;2022-08-20T03:41:36;17.50;99.90
23637;DHT22;11995;50.842;4.456;2022-08-20T03:44:04;17.50;99.90
23637;DHT22;11995;50.842;4.456;2022-08-20T03:46:32;17.50;99.90
23637;DHT22;11995;50.842;4.456;2022-08-20T03:48:59;17.50;99.90
23637;DHT22;11995;50.842;4.456;2022-08-20T03:51:27;17.50;99.90
23637;DHT22;11995;50.842;4.456;2022-08-20T03:53:53;17.50;99.90
23637;DHT22;11995;50.842;4.456;2022-08-20T03:56:20;17.40;99.90
23637;DHT22;11995;50.842;4.456;2022-08-20T03:58:47;17.40;99.90
23637;DHT22;11995;50.842;4.456;2022-08-20T04:01:15;17.40;99.90
23637;DHT22;11995;50.842;4.456;2022-08-20T04:03:42;17.30;99.90
23637;DHT22;11995;50.842;4.456;2022-08-20T04:06:09;17.40;99.90
23637;DHT22;11995;50.842;4.456;2022-08-20T04:08:36;17.40;99.90
23637;DHT22;11995;50.842;4.456;2022-08-20T04:11:04;17.40;99.90
23637;DHT22;11995;50.842;4.456;2022-08-20T04:13:31;17.40;99.90
23637;DHT22;11995;50.842;4.456;2022-08-20T04:16:02;17.40;99.90
23637;DHT22;11995;50.842;4.456;2022-08-20T04:18:31;17.40;99.90
23637;DHT22;11995;50.842;4.456;2022-08-20T04:20:59;17.30;99.90
23637;DHT22;11995;50.842;4.456;2022-08-20T04:23:25;17.10;99.90
23637;DHT22;11995;50.842;4.456;2022-08-20T04:25:52;17.00;99.90
23637;DHT22;11995;50.842;4.456;2022-08-20T04:28:20;17.00;99.90
23637;DHT22;11995;50.842;4.456;2022-08-20T04:30:52;16.90;99.90
23637;DHT22;11995;50.842;4.456;2022-08-20T04:33:19;16.90;99.90
23637;DHT22;11995;50.842;4.456;2022-08-20T04:35:46;16.90;99.90
23637;DHT22;11995;50.842;4.456;2022-08-20T04:38:14;16.90;99.90
23637;DHT22;11995;50.842;4.456;2022-08-20T04:40:41;16.90;99.90
23637;DHT22;11995;50.842;4.456;2022-08-20T04:43:23;16.90;99.90
23637;DHT22;11995;50.842;4.456;2022-08-20T04:45:51;17.00;99.90
23637;DHT22;11995;50.842;4.456;2022-08-20T04:48:19;16.90;99.90
23637;DHT22;11995;50.842;4.456;2022-08-20T04:50:48;17.00;99.90
23637;DHT22;11995;50.842;4.456;2022-08-20T04:53:16;17.00;99.90
23637;DHT22;11995;50.842;4.456;2022-08-20T04:55:44;16.90;99.90
23637;DHT22;11995;50.842;4.456;2022-08-20T04:58:17;16.90;99.90
23637;DHT22;11995;50.842;4.456;2022-08-20T05:00:40;16.70;99.90
23637;DHT22;11995;50.842;4.456;2022-08-20T05:03:08;16.70;99.90
23637;DHT22;11995;50.842;4.456;2022-08-20T05:05:35;16.70;99.90
23637;DHT22;11995;50.842;4.456;2022-08-20T05:08:04;16.80;99.90
23637;DHT22;11995;50.842;4.456;2022-08-20T05:10:31;16.70;99.90
23637;DHT22;11995;50.842;4.456;2022-08-20T05:12:58;16.80;99.90
23637;DHT22;11995;50.842;4.456;2022-08-20T05:15:26;16.80;99.90
23637;DHT22;11995;50.842;4.456;2022-08-20T05:17:58;16.80;99.90
23637;DHT22;11995;50.842;4.456;2022-08-20T05:20:22;16.80;99.90
23637;DHT22;11995;50.842;4.456;2022-08-20T05:22:49;16.90;99.90
23637;DHT22;11995;50.842;4.456;2022-08-20T05:25:18;16.90;99.90
23637;DHT22;11995;50.842;4.456;2022-08-20T05:27:46;17.00;99.90
23637;DHT22;11995;50.842;4.456;2022-08-20T05:30:13;16.90;99.90
23637;DHT22;11995;50.842;4.456;2022-08-20T05:32:40;16.90;99.90
23637;DHT22;11995;50.842;4.456;2022-08-20T05:35:08;17.00;99.90
23637;DHT22;11995;50.842;4.456;2022-08-20T05:37:55;17.10;99.90
23637;DHT22;11995;50.842;4.456;2022-08-20T05:40:23;17.10;99.90
23637;DHT22;11995;50.842;4.456;2022-08-20T05:42:50;17.20;99.90
23637;DHT22;11995;50.842;4.456;2022-08-20T05:45:19;17.20;99.90
23637;DHT22;11995;50.842;4.456;2022-08-20T05:47:47;17.30;99.90
23637;DHT22;11995;50.842;4.456;2022-08-20T05:50:14;17.20;99.90
23637;DHT22;11995;50.842;4.456;2022-08-20T05:52:42;17.20;99.90
23637;DHT22;11995;50.842;4.456;2022-08-20T05:55:09;17.30;99.90
23637;DHT22;11995;50.842;4.456;2022-08-20T05:57:39;17.40;99.90
23637;DHT22;11995;50.842;4.456;2022-08-20T06:00:09;17.40;99.90
23637;DHT22;11995;50.842;4.456;2022-08-20T06:02:35;17.40;99.90
23637;DHT22;11995;50.842;4.456;2022-08-20T06:05:20;17.50;99.90
23637;DHT22;11995;50.842;4.456;2022-08-20T06:07:47;17.50;99.90
23637;DHT22;11995;50.842;4.456;2022-08-20T06:10:15;17.50;99.90
23637;DHT22;11995;50.842;4.456;2022-08-20T06:12:43;17.50;99.90
23637;DHT22;11995;50.842;4.456;2022-08-20T06:15:11;17.70;99.90
23637;DHT22;11995;50.842;4.456;2022-08-20T06:17:38;17.80;99.90
23637;DHT22;11995;50.842;4.456;2022-08-20T06:20:06;17.90;99.90
23637;DHT22;11995;50.842;4.456;2022-08-20T06:22:33;17.90;99.90
23637;DHT22;11995;50.842;4.456;2022-08-20T06:25:01;17.80;99.90
23637;DHT22;11995;50.842;4.456;2022-08-20T06:27:28;17.80;99.90
23637;DHT22;11995;50.842;4.456;2022-08-20T06:29:54;17.80;99.90
23637;DHT22;11995;50.842;4.456;2022-08-20T06:32:21;18.00;99.90
23637;DHT22;11995;50.842;4.456;2022-08-20T06:34:51;18.30;99.90
23637;DHT22;11995;50.842;4.456;2022-08-20T06:37:23;18.50;99.90
23637;DHT22;11995;50.842;4.456;2022-08-20T06:39:46;18.60;99.90
23637;DHT22;11995;50.842;4.456;2022-08-20T06:42:13;18.80;99.90
23637;DHT22;11995;50.842;4.456;2022-08-20T06:44:40;19.10;99.90
23637;DHT22;11995;50.842;4.456;2022-08-20T06:47:08;19.40;99.90
23637;DHT22;11995;50.842;4.456;2022-08-20T06:49:35;19.70;99.90
23637;DHT22;11995;50.842;4.456;2022-08-20T06:52:03;19.90;99.90
23637;DHT22;11995;50.842;4.456;2022-08-20T06:54:30;20.00;99.90
23637;DHT22;11995;50.842;4.456;2022-08-20T06:56:59;20.30;99.90
23637;DHT22;11995;50.842;4.456;2022-08-20T06:59:26;20.20;99.90
23637;DHT22;11995;50.842;4.456;2022-08-20T07:01:53;20.30;99.90
23637;DHT22;11995;50.842;4.456;2022-08-20T07:04:24;20.30;99.90
23637;DHT22;11995;50.842;4.456;2022-08-20T07:06:54;20.30;99.90
23637;DHT22;11995;50.842;4.456;2022-08-20T07:09:23;20.10;99.90
23637;DHT22;11995;50.842;4.456;2022-08-20T07:11:51;20.10;99.90
23637;DHT22;11995;50.842;4.456;2022-08-20T07:14:18;20.00;99.90
23637;DHT22;11995;50.842;4.456;2022-08-20T07:16:45;20.00;99.90
23637;DHT22;11995;50.842;4.456;2022-08-20T07:19:12;20.10;99.90
23637;DHT22;11995;50.842;4.456;2022-08-20T07:21:39;20.20;99.90
23637;DHT22;11995;50.842;4.456;2022-08-20T07:24:07;20.10;99.90
23637;DHT22;11995;50.842;4.456;2022-08-20T07:26:35;19.90;99.90
23637;DHT22;11995;50.842;4.456;2022-08-20T07:29:02;19.80;99.90
23637;DHT22;11995;50.842;4.456;2022-08-20T07:31:30;20.10;99.90
23637;DHT22;11995;50.842;4.456;2022-08-20T07:34:15;20.30;99.90
23637;DHT22;11995;50.842;4.456;2022-08-20T07:36:42;20.50;99.90
23637;DHT22;11995;50.842;4.456;2022-08-20T07:39:08;20.60;99.90
23637;DHT22;11995;50.842;4.456;2022-08-20T07:41:35;20.80;99.90
23637;DHT22;11995;50.842;4.456;2022-08-20T07:44:02;20.80;99.90
23637;DHT22;11995;50.842;4.456;2022-08-20T07:46:29;20.70;99.90
23637;DHT22;11995;50.842;4.456;2022-08-20T07:48:56;20.60;99.90
23637;DHT22;11995;50.842;4.456;2022-08-20T07:51:23;20.60;99.90
23637;DHT22;11995;50.842;4.456;2022-08-20T07:53:50;20.60;99.90
23637;DHT22;11995;50.842;4.456;2022-08-20T07:56:19;20.80;99.90
23637;DHT22;11995;50.842;4.456;2022-08-20T07:58:47;20.70;99.90
23637;DHT22;11995;50.842;4.456;2022-08-20T08:01:29;20.70;99.90
23637;DHT22;11995;50.842;4.456;2022-08-20T08:03:53;20.80;99.90
23637;DHT22;11995;50.842;4.456;2022-08-20T08:06:21;20.90;99.90
23637;DHT22;11995;50.842;4.456;2022-08-20T08:08:48;21.00;99.90
23637;DHT22;11995;50.842;4.456;2022-08-20T08:11:15;21.00;99.90
23637;DHT22;11995;50.842;4.456;2022-08-20T08:13:44;20.90;99.90
23637;DHT22;11995;50.842;4.456;2022-08-20T08:16:12;21.10;99.90
23637;DHT22;11995;50.842;4.456;2022-08-20T08:18:41;21.20;99.90
23637;DHT22;11995;50.842;4.456;2022-08-20T08:21:09;21.10;99.90
23637;DHT22;11995;50.842;4.456;2022-08-20T08:23:38;21.20;99.90
23637;DHT22;11995;50.842;4.456;2022-08-20T08:26:07;21.30;99.90
23637;DHT22;11995;50.842;4.456;2022-08-20T08:28:34;21.30;99.90
23637;DHT22;11995;50.842;4.456;2022-08-20T08:31:01;21.30;99.90
23637;DHT22;11995;50.842;4.456;2022-08-20T08:33:29;21.50;99.90
23637;DHT22;11995;50.842;4.456;2022-08-20T08:35:58;21.60;99.90
23637;DHT22;11995;50.842;4.456;2022-08-20T08:38:26;21.60;99.90
23637;DHT22;11995;50.842;4.456;2022-08-20T08:40:56;21.80;99.90
23637;DHT22;11995;50.842;4.456;2022-08-20T08:43:23;21.80;99.90
23637;DHT22;11995;50.842;4.456;2022-08-20T08:45:55;21.60;99.90
23637;DHT22;11995;50.842;4.456;2022-08-20T08:48:25;21.90;99.90
23637;DHT22;11995;50.842;4.456;2022-08-20T08:50:53;22.00;99.90
23637;DHT22;11995;50.842;4.456;2022-08-20T08:53:28;22.20;99.90
23637;DHT22;11995;50.842;4.456;2022-08-20T08:55:50;22.40;99.90
23637;DHT22;11995;50.842;4.456;2022-08-20T08:58:17;22.50;99.90
23637;DHT22;11995;50.842;4.456;2022-08-20T09:00:44;22.40;99.90
23637;DHT22;11995;50.842;4.456;2022-08-20T09:03:16;22.10;99.90
23637;DHT22;11995;50.842;4.456;2022-08-20T09:08:15;22.00;99.90
23637;DHT22;11995;50.842;4.456;2022-08-20T09:10:44;22.10;99.90
23637;DHT22;11995;50.842;4.456;2022-08-20T09:13:11;22.20;99.90
23637;DHT22;11995;50.842;4.456;2022-08-20T09:15:39;22.20;99.90
23637;DHT22;11995;50.842;4.456;2022-08-20T09:18:06;22.30;99.90
23637;DHT22;11995;50.842;4.456;2022-08-20T09:20:33;22.40;99.90
23637;DHT22;11995;50.842;4.456;2022-08-20T09:23:03;22.70;99.90
23637;DHT22;11995;50.842;4.456;2022-08-20T09:25:29;22.70;99.90
23637;DHT22;11995;50.842;4.456;2022-08-20T09:27:57;22.60;99.90
23637;DHT22;11995;50.842;4.456;2022-08-20T09:30:24;22.90;99.90
23637;DHT22;11995;50.842;4.456;2022-08-20T09:32:50;23.00;99.90
23637;DHT22;11995;50.842;4.456;2022-08-20T09:35:17;22.80;99.90
23637;DHT22;11995;50.842;4.456;2022-08-20T09:37:44;22.80;99.90
23637;DHT22;11995;50.842;4.456;2022-08-20T09:40:11;22.70;99.90
23637;DHT22;11995;50.842;4.456;2022-08-20T09:42:38;22.80;99.90
23637;DHT22;11995;50.842;4.456;2022-08-20T09:45:05;22.90;99.90
23637;DHT22;11995;50.842;4.456;2022-08-20T09:47:32;23.10;99.90
23637;DHT22;11995;50.842;4.456;2022-08-20T09:49:59;23.30;99.90
23637;DHT22;11995;50.842;4.456;2022-08-20T09:52:33;23.50;99.90
23637;DHT22;11995;50.842;4.456;2022-08-20T09:55:07;23.70;99.90
23637;DHT22;11995;50.842;4.456;2022-08-20T09:57:32;23.70;99.90
23637;DHT22;11995;50.842;4.456;2022-08-20T10:00:02;23.40;99.60
23637;DHT22;11995;50.842;4.456;2022-08-20T10:02:28;23.30;99.90
23637;DHT22;11995;50.842;4.456;2022-08-20T10:04:56;23.40;99.90
23637;DHT22;11995;50.842;4.456;2022-08-20T10:07:23;23.60;99.90
23637;DHT22;11995;50.842;4.456;2022-08-20T10:09:50;23.50;98.80
23637;DHT22;11995;50.842;4.456;2022-08-20T10:12:16;23.20;99.10
23637;DHT22;11995;50.842;4.456;2022-08-20T10:14:43;23.30;99.90
23637;DHT22;11995;50.842;4.456;2022-08-20T10:17:10;23.50;97.90
23637;DHT22;11995;50.842;4.456;2022-08-20T10:19:37;23.60;96.80
23637;DHT22;11995;50.842;4.456;2022-08-20T10:22:04;23.60;95.40
23637;DHT22;11995;50.842;4.456;2022-08-20T10:24:31;23.70;95.50
23637;DHT22;11995;50.842;4.456;2022-08-20T10:26:58;23.50;96.00
23637;DHT22;11995;50.842;4.456;2022-08-20T10:29:26;23.50;96.10
23637;DHT22;11995;50.842;4.456;2022-08-20T10:31:53;23.50;94.50
23637;DHT22;11995;50.842;4.456;2022-08-20T10:34:22;23.30;95.70
23637;DHT22;11995;50.842;4.456;2022-08-20T10:36:49;23.40;96.50
23637;DHT22;11995;50.842;4.456;2022-08-20T10:39:16;23.30;95.50
23637;DHT22;11995;50.842;4.456;2022-08-20T10:41:43;23.60;96.00
23637;DHT22;11995;50.842;4.456;2022-08-20T10:44:10;23.70;96.10
23637;DHT22;11995;50.842;4.456;2022-08-20T10:46:37;23.80;95.50
23637;DHT22;11995;50.842;4.456;2022-08-20T10:49:04;23.80;94.60
23637;DHT22;11995;50.842;4.456;2022-08-20T10:51:31;23.80;94.70
23637;DHT22;11995;50.842;4.456;2022-08-20T10:53:57;24.00;94.90
23637;DHT22;11995;50.842;4.456;2022-08-20T10:56:24;24.00;94.50
23637;DHT22;11995;50.842;4.456;2022-08-20T10:58:51;24.20;94.10
23637;DHT22;11995;50.842;4.456;2022-08-20T11:01:18;24.20;94.40
23637;DHT22;11995;50.842;4.456;2022-08-20T11:03:45;24.10;93.00
23637;DHT22;11995;50.842;4.456;2022-08-20T11:06:12;24.10;92.70
23637;DHT22;11995;50.842;4.456;2022-08-20T11:08:38;24.20;92.20
23637;DHT22;11995;50.842;4.456;2022-08-20T11:11:05;24.00;91.80
23637;DHT22;11995;50.842;4.456;2022-08-20T11:13:32;24.10;92.30
23637;DHT22;11995;50.842;4.456;2022-08-20T11:15:59;24.30;93.10
23637;DHT22;11995;50.842;4.456;2022-08-20T11:18:27;24.00;93.30
23637;DHT22;11995;50.842;4.456;2022-08-20T11:20:54;23.80;93.90
23637;DHT22;11995;50.842;4.456;2022-08-20T11:23:21;23.60;94.30
23637;DHT22;11995;50.842;4.456;2022-08-20T11:25:48;23.50;94.70
23637;DHT22;11995;50.842;4.456;2022-08-20T11:28:15;23.00;95.60
23637;DHT22;11995;50.842;4.456;2022-08-20T11:30:42;22.90;96.10
23637;DHT22;11995;50.842;4.456;2022-08-20T11:33:11;22.70;96.30
23637;DHT22;11995;50.842;4.456;2022-08-20T11:35:37;23.00;96.40
23637;DHT22;11995;50.842;4.456;2022-08-20T11:38:04;23.30;95.40
23637;DHT22;11995;50.842;4.456;2022-08-20T11:40:31;23.60;94.80
23637;DHT22;11995;50.842;4.456;2022-08-20T11:42:58;23.90;94.40
23637;DHT22;11995;50.842;4.456;2022-08-20T11:45:25;23.80;94.30
23637;DHT22;11995;50.842;4.456;2022-08-20T11:47:52;23.90;93.20
23637;DHT22;11995;50.842;4.456;2022-08-20T11:50:19;23.40;93.30
23637;DHT22;11995;50.842;4.456;2022-08-20T11:52:47;23.30;94.10
23637;DHT22;11995;50.842;4.456;2022-08-20T11:55:14;23.10;94.10
23637;DHT22;11995;50.842;4.456;2022-08-20T11:57:42;23.10;94.50
23637;DHT22;11995;50.842;4.456;2022-08-20T12:00:11;23.30;95.00
23637;DHT22;11995;50.842;4.456;2022-08-20T12:02:39;23.50;94.50
23637;DHT22;11995;50.842;4.456;2022-08-20T12:05:09;23.50;94.40
23637;DHT22;11995;50.842;4.456;2022-08-20T12:07:36;23.30;94.30
23637;DHT22;11995;50.842;4.456;2022-08-20T12:10:03;23.30;94.50
23637;DHT22;11995;50.842;4.456;2022-08-20T12:12:31;23.40;94.20
23637;DHT22;11995;50.842;4.456;2022-08-20T12:14:58;23.30;93.70
23637;DHT22;11995;50.842;4.456;2022-08-20T12:17:26;23.20;93.70
23637;DHT22;11995;50.842;4.456;2022-08-20T12:19:56;23.10;93.30
23637;DHT22;11995;50.842;4.456;2022-08-20T12:22:22;23.30;93.70
23637;DHT22;11995;50.842;4.456;2022-08-20T12:24:50;23.40;92.80
23637;DHT22;11995;50.842;4.456;2022-08-20T12:27:18;23.60;92.70
23637;DHT22;11995;50.842;4.456;2022-08-20T12:29:46;23.80;92.10
23637;DHT22;11995;50.842;4.456;2022-08-20T12:32:14;23.70;92.70
23637;DHT22;11995;50.842;4.456;2022-08-20T12:34:42;23.50;92.80
23637;DHT22;11995;50.842;4.456;2022-08-20T12:37:10;23.40;93.00
23637;DHT22;11995;50.842;4.456;2022-08-20T12:39:39;23.40;92.00
23637;DHT22;11995;50.842;4.456;2022-08-20T12:42:06;23.40;93.20
23637;DHT22;11995;50.842;4.456;2022-08-20T12:44:34;23.60;92.60
23637;DHT22;11995;50.842;4.456;2022-08-20T12:47:11;23.60;92.80
23637;DHT22;11995;50.842;4.456;2022-08-20T12:49:35;23.40;92.70
23637;DHT22;11995;50.842;4.456;2022-08-20T12:52:02;23.40;92.50
23637;DHT22;11995;50.842;4.456;2022-08-20T12:54:29;23.60;92.30
23637;DHT22;11995;50.842;4.456;2022-08-20T12:56:56;23.50;91.90
23637;DHT22;11995;50.842;4.456;2022-08-20T12:59:23;23.40;92.30
23637;DHT22;11995;50.842;4.456;2022-08-20T13:01:51;23.40;92.30
23637;DHT22;11995;50.842;4.456;2022-08-20T13:04:18;23.60;91.20
23637;DHT22;11995;50.842;4.456;2022-08-20T13:06:46;23.60;90.70
23637;DHT22;11995;50.842;4.456;2022-08-20T13:09:13;23.80;91.00
23637;DHT22;11995;50.842;4.456;2022-08-20T13:11:42;23.80;90.70
23637;DHT22;11995;50.842;4.456;2022-08-20T13:14:09;23.90;90.90
23637;DHT22;11995;50.842;4.456;2022-08-20T13:16:37;23.90;90.60
23637;DHT22;11995;50.842;4.456;2022-08-20T13:19:04;23.60;90.40
23637;DHT22;11995;50.842;4.456;2022-08-20T13:21:31;23.70;90.80
23637;DHT22;11995;50.842;4.456;2022-08-20T13:23:58;23.80;90.60
23637;DHT22;11995;50.842;4.456;2022-08-20T13:26:24;23.70;90.70
23637;DHT22;11995;50.842;4.456;2022-08-20T13:28:51;23.80;90.90
23637;DHT22;11995;50.842;4.456;2022-08-20T13:31:18;24.00;90.70
23637;DHT22;11995;50.842;4.456;2022-08-20T13:33:45;24.10;90.20
23637;DHT22;11995;50.842;4.456;2022-08-20T13:36:13;24.20;89.90
23637;DHT22;11995;50.842;4.456;2022-08-20T13:38:39;24.30;89.10
23637;DHT22;11995;50.842;4.456;2022-08-20T13:41:06;24.60;88.00
23637;DHT22;11995;50.842;4.456;2022-08-20T13:43:33;24.80;85.90
23637;DHT22;11995;50.842;4.456;2022-08-20T13:46:00;24.40;88.70
23637;DHT22;11995;50.842;4.456;2022-08-20T13:48:27;24.40;90.10
23637;DHT22;11995;50.842;4.456;2022-08-20T13:50:54;24.30;89.50
23637;DHT22;11995;50.842;4.456;2022-08-20T13:53:21;24.40;89.40
23637;DHT22;11995;50.842;4.456;2022-08-20T13:55:48;24.50;89.10
23637;DHT22;11995;50.842;4.456;2022-08-20T13:58:15;24.40;88.40
23637;DHT22;11995;50.842;4.456;2022-08-20T14:00:44;24.40;88.80
23637;DHT22;11995;50.842;4.456;2022-08-20T14:03:11;24.40;89.30
23637;DHT22;11995;50.842;4.456;2022-08-20T14:05:38;24.00;89.00
23637;DHT22;11995;50.842;4.456;2022-08-20T14:08:07;23.70;89.50
23637;DHT22;11995;50.842;4.456;2022-08-20T14:10:33;23.80;90.30
23637;DHT22;11995;50.842;4.456;2022-08-20T14:13:00;24.00;90.00
23637;DHT22;11995;50.842;4.456;2022-08-20T14:15:28;24.10;89.60
23637;DHT22;11995;50.842;4.456;2022-08-20T14:17:55;24.40;90.10
23637;DHT22;11995;50.842;4.456;2022-08-20T14:20:24;24.50;89.00
23637;DHT22;11995;50.842;4.456;2022-08-20T14:22:51;24.30;88.30
23637;DHT22;11995;50.842;4.456;2022-08-20T14:25:18;24.40;89.10
23637;DHT22;11995;50.842;4.456;2022-08-20T14:27:46;24.40;89.70
23637;DHT22;11995;50.842;4.456;2022-08-20T14:30:15;24.50;89.40
23637;DHT22;11995;50.842;4.456;2022-08-20T14:32:45;24.50;88.70
23637;DHT22;11995;50.842;4.456;2022-08-20T14:35:12;24.40;88.30
23637;DHT22;11995;50.842;4.456;2022-08-20T14:37:40;24.40;88.50
23637;DHT22;11995;50.842;4.456;2022-08-20T14:40:08;24.40;88.60
23637;DHT22;11995;50.842;4.456;2022-08-20T14:42:35;24.00;88.10
23637;DHT22;11995;50.842;4.456;2022-08-20T14:45:03;24.00;89.20
23637;DHT22;11995;50.842;4.456;2022-08-20T14:47:36;24.20;88.90
23637;DHT22;11995;50.842;4.456;2022-08-20T14:50:00;24.10;87.70
23637;DHT22;11995;50.842;4.456;2022-08-20T14:52:29;24.20;88.60
23637;DHT22;11995;50.842;4.456;2022-08-20T14:54:57;24.10;88.80
23637;DHT22;11995;50.842;4.456;2022-08-20T14:57:24;23.60;89.00
23637;DHT22;11995;50.842;4.456;2022-08-20T14:59:51;23.70;90.00
23637;DHT22;11995;50.842;4.456;2022-08-20T15:02:18;23.90;89.50
23637;DHT22;11995;50.842;4.456;2022-08-20T15:04:45;23.90;90.00
23637;DHT22;11995;50.842;4.456;2022-08-20T15:07:21;23.80;89.40
23637;DHT22;11995;50.842;4.456;2022-08-20T15:09:43;23.70;90.10
23637;DHT22;11995;50.842;4.456;2022-08-20T15:12:10;23.60;89.20
23637;DHT22;11995;50.842;4.456;2022-08-20T15:14:37;23.70;90.10
23637;DHT22;11995;50.842;4.456;2022-08-20T15:17:04;23.70;89.50
23637;DHT22;11995;50.842;4.456;2022-08-20T15:19:31;23.80;89.20
23637;DHT22;11995;50.842;4.456;2022-08-20T15:21:58;24.00;90.00
23637;DHT22;11995;50.842;4.456;2022-08-20T15:24:25;24.00;88.60
23637;DHT22;11995;50.842;4.456;2022-08-20T15:26:52;24.00;88.90
23637;DHT22;11995;50.842;4.456;2022-08-20T15:29:18;24.20;89.50
23637;DHT22;11995;50.842;4.456;2022-08-20T15:31:45;24.20;88.20
23637;DHT22;11995;50.842;4.456;2022-08-20T15:34:12;24.20;89.10
23637;DHT22;11995;50.842;4.456;2022-08-20T15:36:40;24.00;89.20
23637;DHT22;11995;50.842;4.456;2022-08-20T15:39:06;23.90;89.50
23637;DHT22;11995;50.842;4.456;2022-08-20T15:41:33;23.80;90.20